createdAt,value
2022-11-22T00:01:06.340Z,36.33
2022-11-22T00:03:32.826Z,40.05
2022-11-22T00:05:59.605Z,41.25
2022-11-22T00:08:26.146Z,42.38
2022-11-22T00:10:52.696Z,40.35
2022-11-22T00:13:19.297Z,38.40
2022-11-22T00:15:45.805Z,37.33
2022-11-22T00:18:12.288Z,41.03
2022-11-22T00:20:38.787Z,43.28
2022-11-22T00:23:05.284Z,45.67
2022-11-22T00:25:31.775Z,44.67
2022-11-22T00:27:58.239Z,47.30
2022-11-22T00:30:24.731Z,43.75
2022-11-22T00:32:51.248Z,43.88
2022-11-22T00:35:17.743Z,44.67
2022-11-22T00:37:44.232Z,49.85
2022-11-22T00:40:10.967Z,45.45
2022-11-22T00:42:37.459Z,50.10
2022-11-22T00:45:04.184Z,51.22
2022-11-22T00:47:30.691Z,53.25
2022-11-22T00:49:57.164Z,40.90
2022-11-22T00:52:23.650Z,44.47
2022-11-22T00:54:54.475Z,45.63
2022-11-22T00:57:21.578Z,37.33
2022-11-22T00:59:48.044Z,44.17
2022-11-22T01:02:14.532Z,43.47
2022-11-22T01:04:41.053Z,39.53
2022-11-22T01:07:07.588Z,45.92
2022-11-22T01:09:34.123Z,47.25
2022-11-22T01:12:00.606Z,46.42
2022-11-22T01:14:27.076Z,50.13
2022-11-22T01:16:53.583Z,50.97
2022-11-22T01:19:20.068Z,55.72
2022-11-22T01:21:46.546Z,53.08
2022-11-22T01:24:13.086Z,55.05
2022-11-22T01:26:39.607Z,58.15
2022-11-22T01:29:06.883Z,60.33
2022-11-22T01:31:33.387Z,63.47
2022-11-22T01:33:59.997Z,73.93
2022-11-22T01:36:27.328Z,113.50
2022-11-22T01:38:53.816Z,1999.90
2022-11-22T01:41:20.386Z,28.15
2022-11-22T01:43:46.866Z,46.90
2022-11-22T01:46:37.397Z,27.58
2022-11-22T01:49:25.305Z,30.63
2022-11-22T01:51:52.472Z,26.48
2022-11-22T01:54:21.514Z,57.53
2022-11-22T01:56:51.984Z,32.63
2022-11-22T01:59:19.706Z,34.85
2022-11-22T02:01:46.201Z,37.95
2022-11-22T02:04:13.732Z,35.83
2022-11-22T02:06:51.375Z,30.33
2022-11-22T02:09:17.839Z,29.50
2022-11-22T02:11:49.042Z,29.40
2022-11-22T02:14:15.638Z,29.92
2022-11-22T02:16:42.509Z,33.33
2022-11-22T02:19:54.863Z,34.40
2022-11-22T02:22:40.071Z,33.15
2022-11-22T02:25:23.721Z,38.80
2022-11-22T02:27:50.214Z,38.65
2022-11-22T02:30:16.776Z,40.70
2022-11-22T02:32:43.298Z,35.17
2022-11-22T02:35:23.784Z,36.90
2022-11-22T02:37:52.445Z,31.20
2022-11-22T02:40:18.941Z,31.23
2022-11-22T02:42:48.567Z,32.60
2022-11-22T02:45:15.106Z,31.63
2022-11-22T02:47:41.638Z,33.03
2022-11-22T02:50:08.440Z,33.95
2022-11-22T02:52:34.927Z,41.72
2022-11-22T02:55:01.398Z,38.38
2022-11-22T02:57:27.890Z,43.97
2022-11-22T02:59:54.375Z,49.20
2022-11-22T03:02:20.914Z,44.20
2022-11-22T03:04:47.394Z,40.45
2022-11-22T03:07:14.094Z,41.92
2022-11-22T03:09:40.602Z,45.03
2022-11-22T03:12:07.417Z,40.63
2022-11-22T03:14:33.896Z,39.28
2022-11-22T03:17:00.395Z,40.08
2022-11-22T03:19:26.873Z,40.03
2022-11-22T03:21:53.417Z,39.10
2022-11-22T03:24:20.264Z,38.90
2022-11-22T03:26:48.185Z,40.40
2022-11-22T03:29:14.863Z,47.97
2022-11-22T03:31:41.369Z,47.42
2022-11-22T03:34:08.949Z,47.25
2022-11-22T03:36:35.447Z,52.03
2022-11-22T03:39:01.963Z,58.60
2022-11-22T03:41:29.152Z,56.67
2022-11-22T03:43:55.699Z,62.50
2022-11-22T03:46:22.242Z,64.78
2022-11-22T03:48:48.778Z,60.58
2022-11-22T03:51:15.405Z,62.58
2022-11-22T03:53:41.917Z,55.53
2022-11-22T03:56:08.427Z,60.55
2022-11-22T03:58:35.038Z,56.80
2022-11-22T04:01:01.646Z,52.75
2022-11-22T04:03:28.236Z,56.47
2022-11-22T04:05:54.938Z,62.78
2022-11-22T04:08:21.413Z,66.32
2022-11-22T04:10:51.306Z,68.47
2022-11-22T04:13:18.221Z,67.00
2022-11-22T04:15:44.832Z,69.40
2022-11-22T04:18:12.014Z,68.45
2022-11-22T04:20:57.184Z,70.05
2022-11-22T04:23:26.226Z,69.68
2022-11-22T04:25:55.981Z,63.65
2022-11-22T04:28:40.474Z,61.45
2022-11-22T04:31:28.978Z,53.28
2022-11-22T04:33:55.447Z,56.90
2022-11-22T04:36:21.911Z,51.15
2022-11-22T04:38:48.398Z,60.70
2022-11-22T04:41:14.882Z,58.83
2022-11-22T04:43:59.930Z,51.17
2022-11-22T04:46:26.407Z,47.95
2022-11-22T04:48:52.877Z,50.63
2022-11-22T04:51:38.064Z,49.75
2022-11-22T04:54:04.610Z,55.55
2022-11-22T04:56:31.097Z,53.35
2022-11-22T04:58:57.570Z,54.33
2022-11-22T05:01:24.069Z,52.50
2022-11-22T05:03:50.574Z,62.55
2022-11-22T05:06:17.055Z,50.15
2022-11-22T05:08:43.545Z,54.67
2022-11-22T05:11:10.172Z,37.75
2022-11-22T05:13:38.405Z,57.63
2022-11-22T05:16:06.392Z,71.75
2022-11-22T05:18:32.873Z,167.20
2022-11-22T05:21:00.695Z,56.50
2022-11-22T05:23:45.872Z,31.27
2022-11-22T05:26:12.387Z,34.40
2022-11-22T05:28:39.153Z,72.55
2022-11-22T05:31:09.717Z,32.03
2022-11-22T05:33:37.797Z,28.45
2022-11-22T05:36:04.915Z,42.65
2022-11-22T05:38:31.510Z,56.00
2022-11-22T05:40:58.186Z,79.03
2022-11-22T05:43:24.752Z,65.57
2022-11-22T05:45:51.213Z,145.65
2022-11-22T05:48:17.978Z,68.65
2022-11-22T05:50:44.463Z,70.60
2022-11-22T05:53:11.299Z,37.70
2022-11-22T05:55:37.767Z,46.13
2022-11-22T05:58:04.235Z,37.25
2022-11-22T06:00:30.711Z,44.47
2022-11-22T06:03:01.661Z,64.25
2022-11-22T06:05:28.681Z,86.65
2022-11-22T06:07:58.615Z,88.28
2022-11-22T06:10:25.137Z,127.95
2022-11-22T06:12:51.624Z,119.93
2022-11-22T06:15:18.102Z,110.50
2022-11-22T06:17:44.648Z,121.15
2022-11-22T06:20:11.570Z,65.88
2022-11-22T06:22:38.098Z,73.28
2022-11-22T06:25:05.030Z,37.50
2022-11-22T06:27:31.562Z,54.30
2022-11-22T06:29:58.038Z,40.63
2022-11-22T06:32:24.542Z,33.00
2022-11-22T06:34:51.056Z,35.40
2022-11-22T06:37:17.566Z,39.10
2022-11-22T06:39:44.028Z,34.90
2022-11-22T06:42:10.499Z,44.88
2022-11-22T06:44:37.004Z,49.17
2022-11-22T06:47:03.496Z,46.78
2022-11-22T06:49:30.987Z,51.03
2022-11-22T06:51:57.642Z,44.67
2022-11-22T06:54:24.124Z,49.42
2022-11-22T06:56:50.611Z,45.45
2022-11-22T06:59:17.619Z,44.20
2022-11-22T07:01:44.204Z,40.50
2022-11-22T07:04:10.757Z,41.72
2022-11-22T07:06:38.588Z,52.00
2022-11-22T07:09:09.567Z,48.45
2022-11-22T07:11:36.265Z,58.63
2022-11-22T07:14:07.793Z,74.10
2022-11-22T07:16:35.471Z,71.20
2022-11-22T07:19:01.940Z,62.65
2022-11-22T07:21:28.474Z,48.28
2022-11-22T07:23:55.234Z,41.42
2022-11-22T07:26:22.866Z,37.70
2022-11-22T07:28:49.423Z,39.60
2022-11-22T07:31:16.625Z,38.90
2022-11-22T07:33:43.184Z,37.47
2022-11-22T07:36:17.611Z,38.20
2022-11-22T07:38:44.139Z,39.55
2022-11-22T07:41:10.667Z,39.10
2022-11-22T07:43:37.243Z,37.38
2022-11-22T07:46:08.239Z,38.63
2022-11-22T07:48:34.873Z,42.95
2022-11-22T07:51:05.755Z,46.13
2022-11-22T07:53:32.929Z,49.22
2022-11-22T07:56:06.067Z,44.58
2022-11-22T07:58:33.577Z,40.42
2022-11-22T08:01:14.345Z,41.75
2022-11-22T08:03:40.905Z,40.28
2022-11-22T08:06:08.408Z,43.45
2022-11-22T08:08:35.223Z,44.38
2022-11-22T08:11:01.825Z,41.83
2022-11-22T08:13:28.379Z,40.25
2022-11-22T08:15:56.747Z,41.35
2022-11-22T08:18:25.098Z,45.28
2022-11-22T08:20:51.576Z,41.33
2022-11-22T08:23:18.787Z,43.03
2022-11-22T08:25:45.271Z,40.40
2022-11-22T08:28:12.049Z,39.30
2022-11-22T08:30:38.590Z,48.47
2022-11-22T08:33:05.086Z,58.38
2022-11-22T08:35:31.571Z,48.53
2022-11-22T08:37:58.309Z,47.47
2022-11-22T08:40:24.847Z,47.58
2022-11-22T08:42:53.900Z,49.15
2022-11-22T08:45:20.391Z,50.30
2022-11-22T08:47:48.882Z,51.00
2022-11-22T08:50:16.110Z,49.95
2022-11-22T08:52:42.575Z,47.10
2022-11-22T08:55:09.235Z,52.53
2022-11-22T08:57:35.707Z,58.58
2022-11-22T09:00:02.366Z,52.10
2022-11-22T09:02:28.877Z,49.83
2022-11-22T09:04:55.355Z,49.47
2022-11-22T09:10:08.444Z,52.50
2022-11-22T09:12:34.931Z,51.65
2022-11-22T09:15:01.416Z,62.65
2022-11-22T09:17:27.891Z,68.68
2022-11-22T09:19:54.476Z,75.88
2022-11-22T09:22:25.355Z,89.80
2022-11-22T09:24:54.646Z,92.22
2022-11-22T09:27:21.119Z,86.88
2022-11-22T09:29:47.617Z,100.72
2022-11-22T09:32:14.127Z,110.95
2022-11-22T09:34:40.601Z,112.22
2022-11-22T09:37:07.076Z,49.95
2022-11-22T09:39:33.722Z,52.22
2022-11-22T09:42:23.124Z,47.25
2022-11-22T09:44:52.658Z,46.70
2022-11-22T09:47:36.909Z,45.92
2022-11-22T09:50:29.808Z,40.65
2022-11-22T09:53:03.021Z,40.53
2022-11-22T09:55:44.313Z,49.47
2022-11-22T09:58:11.486Z,54.35
2022-11-22T10:00:38.149Z,65.65
2022-11-22T10:03:19.556Z,61.75
2022-11-22T10:05:51.156Z,48.33
2022-11-22T10:08:20.441Z,53.30
2022-11-22T10:10:46.903Z,57.80
2022-11-22T10:13:19.955Z,67.88
2022-11-22T10:16:23.592Z,73.35
2022-11-22T10:18:56.830Z,56.60
2022-11-22T10:21:23.291Z,70.50
2022-11-22T10:23:49.787Z,80.97
2022-11-22T10:26:26.539Z,70.72
2022-11-22T10:28:55.876Z,58.00
2022-11-22T10:31:43.595Z,54.22
2022-11-22T10:34:13.906Z,50.15
2022-11-22T10:39:16.172Z,35.97
2022-11-22T10:42:27.761Z,40.38
2022-11-22T10:45:06.484Z,40.78
2022-11-22T10:48:04.566Z,48.47
2022-11-22T10:51:04.587Z,39.17
2022-11-22T10:53:34.622Z,35.40
2022-11-22T10:56:19.839Z,42.28
2022-11-22T10:59:12.609Z,40.80
2022-11-22T11:01:44.638Z,39.88
2022-11-22T11:04:12.072Z,73.30
2022-11-22T11:07:11.819Z,41.92
2022-11-22T11:10:10.766Z,39.70
2022-11-22T11:12:59.367Z,36.70
2022-11-22T11:15:38.201Z,46.38
2022-11-22T11:18:08.725Z,47.38
2022-11-22T11:20:37.172Z,49.95
2022-11-22T11:23:18.950Z,64.82
2022-11-22T11:25:46.303Z,48.90
2022-11-22T11:28:24.362Z,52.42
2022-11-22T11:31:09.611Z,192.43
2022-11-22T11:33:38.339Z,59.85
2022-11-22T11:36:22.124Z,45.47
2022-11-22T11:38:55.642Z,45.72
2022-11-22T11:41:32.761Z,41.72
2022-11-22T11:44:00.702Z,43.70
2022-11-22T11:46:28.403Z,43.35
2022-11-22T11:49:09.100Z,46.65
2022-11-22T11:51:46.279Z,53.83
2022-11-22T11:54:17.587Z,54.80
2022-11-22T11:56:46.679Z,41.90
2022-11-22T11:59:23.713Z,46.83
2022-11-22T12:02:14.623Z,66.70
2022-11-22T12:04:59.569Z,45.75
2022-11-22T12:07:27.661Z,48.47
2022-11-22T12:09:55.596Z,43.85
2022-11-22T12:12:45.243Z,57.47
2022-11-22T12:15:32.866Z,41.78
2022-11-22T12:18:03.759Z,56.83
2022-11-22T12:20:41.944Z,45.53
2022-11-22T12:23:20.452Z,47.40
2022-11-22T12:25:46.938Z,48.35
2022-11-22T12:28:26.677Z,45.20
2022-11-22T12:30:54.311Z,41.13
2022-11-22T12:33:26.976Z,48.05
2022-11-22T12:35:53.943Z,50.00
2022-11-22T12:38:40.506Z,51.35
2022-11-22T12:41:09.464Z,43.15
2022-11-22T12:44:05.931Z,43.28
2022-11-22T12:46:40.012Z,41.45
2022-11-22T12:49:30.025Z,44.33
2022-11-22T12:51:58.196Z,45.55
2022-11-22T12:54:38.187Z,41.45
2022-11-22T12:57:13.315Z,44.17
2022-11-22T13:00:29.637Z,53.72
2022-11-22T13:03:05.747Z,45.10
2022-11-22T13:05:54.125Z,51.80
2022-11-22T13:08:42.932Z,50.60
2022-11-22T13:11:35.838Z,39.42
2022-11-22T13:14:07.541Z,36.80
2022-11-22T13:16:34.120Z,42.92
2022-11-22T13:19:02.743Z,40.13
2022-11-22T13:22:04.570Z,40.17
2022-11-22T13:24:49.692Z,36.33
2022-11-22T13:27:25.809Z,37.67
2022-11-22T13:29:54.626Z,36.35
2022-11-22T13:32:23.450Z,36.80
2022-11-22T13:35:01.802Z,37.00
2022-11-22T13:37:28.887Z,39.35
2022-11-22T13:39:55.358Z,36.70
2022-11-22T13:42:30.854Z,35.78
2022-11-22T13:44:57.232Z,34.45
2022-11-22T13:47:23.648Z,40.28
2022-11-22T13:49:50.920Z,42.00
2022-11-22T13:52:17.260Z,39.08
2022-11-22T13:54:46.784Z,34.33
2022-11-22T13:57:34.665Z,32.50
2022-11-22T14:00:16.002Z,32.90
2022-11-22T14:02:48.406Z,34.17
2022-11-22T14:05:21.639Z,48.58
2022-11-22T14:07:52.386Z,32.67
2022-11-22T14:10:46.648Z,33.05
2022-11-22T14:13:19.098Z,23.65
2022-11-22T14:16:13.038Z,102.57
2022-11-22T14:19:07.501Z,1999.90
2022-11-22T14:21:42.739Z,1999.90
2022-11-22T14:24:37.055Z,1999.90
2022-11-22T14:27:09.514Z,1999.90
2022-11-22T14:29:53.871Z,1999.90
2022-11-22T14:32:24.467Z,1999.90
2022-11-22T14:37:42.287Z,1999.90
2022-11-22T14:40:09.679Z,1999.90
2022-11-22T14:42:36.231Z,1999.90
2022-11-22T14:45:04.383Z,1999.90
2022-11-22T14:47:30.889Z,1999.90
2022-11-22T14:49:57.435Z,1999.90
2022-11-22T14:52:25.383Z,1999.90
2022-11-22T14:55:01.947Z,1999.90
2022-11-22T14:57:29.564Z,1999.90
2022-11-22T15:00:21.627Z,1999.90
2022-11-22T15:03:09.736Z,1999.90
2022-11-22T15:09:11.958Z,1999.90
2022-11-22T15:09:23.874Z,1999.90
2022-11-22T15:11:56.063Z,1999.90
2022-11-22T15:14:40.902Z,161.40
2022-11-22T15:57:32.156Z,48.28
2022-11-22T15:59:58.728Z,51.25
2022-11-22T16:02:29.518Z,47.22
2022-11-22T16:06:10.196Z,49.80
2022-11-22T16:07:55.532Z,50.40
2022-11-22T16:10:23.884Z,54.65
2022-11-22T16:12:50.921Z,54.95
2022-11-22T16:15:35.911Z,52.67
2022-11-22T16:18:27.460Z,51.50
2022-11-22T16:21:19.216Z,53.55
2022-11-22T16:23:45.817Z,65.25
2022-11-22T16:26:21.973Z,51.42
2022-11-22T16:28:54.430Z,51.63
2022-11-22T16:31:25.709Z,53.53
2022-11-22T16:33:52.819Z,570.10
2022-11-22T16:36:19.933Z,1999.90
2022-11-22T16:38:46.444Z,1999.90
2022-11-22T16:41:20.669Z,1999.90
2022-11-22T16:43:49.334Z,1999.90
2022-11-22T16:46:15.812Z,1999.90
2022-11-22T16:48:42.864Z,1999.90
2022-11-22T16:51:13.776Z,1999.90
2022-11-22T16:53:42.316Z,1999.90
2022-11-22T16:56:15.154Z,1999.90
2022-11-22T16:58:41.623Z,1999.90
2022-11-22T17:01:11.701Z,1999.90
2022-11-22T17:03:38.445Z,1999.90
2022-11-22T17:06:04.987Z,1999.90
2022-11-22T17:08:31.489Z,1999.90
2022-11-22T17:10:58.039Z,1999.90
2022-11-22T17:13:25.636Z,1999.90
2022-11-22T17:15:52.937Z,1999.90
2022-11-22T17:18:19.429Z,1525.00
2022-11-22T17:20:46.386Z,1999.90
2022-11-22T17:23:15.643Z,1999.90
2022-11-22T17:25:42.361Z,1526.90
2022-11-22T17:28:08.821Z,1999.90
2022-11-22T17:30:35.475Z,1999.90
2022-11-22T17:33:01.956Z,1531.55
2022-11-22T17:35:32.176Z,133.25
2022-11-22T17:38:02.311Z,1043.93
2022-11-22T17:40:28.862Z,1534.28
2022-11-22T17:42:55.385Z,130.55
2022-11-22T17:45:21.855Z,132.73
2022-11-22T17:47:48.320Z,140.80
2022-11-22T17:50:15.103Z,133.30
2022-11-22T17:52:41.612Z,133.43
2022-11-22T17:55:13.077Z,142.57
2022-11-22T17:57:41.207Z,15.18
2022-11-22T18:00:08.084Z,17.70
2022-11-22T18:02:34.724Z,16.00
2022-11-22T18:05:04.454Z,15.20
2022-11-22T18:07:31.087Z,14.88
2022-11-22T18:09:57.609Z,13.05
2022-11-22T18:12:24.077Z,10.88
2022-11-22T18:14:50.622Z,12.63
2022-11-22T18:17:17.170Z,13.63
2022-11-22T18:19:43.777Z,12.55
2022-11-22T18:22:10.484Z,14.60
2022-11-22T18:24:36.955Z,16.45
2022-11-22T18:27:03.466Z,12.88
2022-11-22T18:29:45.349Z,12.75
2022-11-22T18:32:11.898Z,13.40
2022-11-22T18:34:38.834Z,13.40
2022-11-22T18:37:05.484Z,13.90
2022-11-22T18:39:34.292Z,12.75
2022-11-22T18:42:01.342Z,55.55
2022-11-22T18:44:28.045Z,14.02
2022-11-22T18:46:54.606Z,16.02
2022-11-22T18:49:21.089Z,15.23
2022-11-22T18:51:47.623Z,15.52
2022-11-22T18:54:14.326Z,16.75
2022-11-22T18:56:41.142Z,14.27
2022-11-22T18:59:08.202Z,16.92
2022-11-22T19:01:34.831Z,19.52
2022-11-22T19:04:01.848Z,15.90
2022-11-22T19:06:28.374Z,15.95
2022-11-22T19:08:55.321Z,15.73
2022-11-22T19:11:21.906Z,15.00
2022-11-22T19:13:48.590Z,17.25
2022-11-22T19:16:16.871Z,33.35
2022-11-22T19:18:43.775Z,15.63
2022-11-22T19:21:17.715Z,16.75
2022-11-22T19:23:44.455Z,18.13
2022-11-22T19:26:14.102Z,14.65
2022-11-22T19:28:41.428Z,15.85
2022-11-22T19:31:13.541Z,16.35
2022-11-22T19:33:40.346Z,16.92
2022-11-22T19:36:12.099Z,19.95
2022-11-22T19:38:38.791Z,18.30
2022-11-22T19:41:19.391Z,18.63
2022-11-22T19:43:46.471Z,18.73
2022-11-22T19:46:13.023Z,20.25
2022-11-22T19:48:45.341Z,18.98
2022-11-22T19:51:14.245Z,19.65
2022-11-22T19:53:41.794Z,20.60
2022-11-22T19:56:14.490Z,20.63
2022-11-22T19:58:41.183Z,22.33
2022-11-22T20:01:12.258Z,17.13
2022-11-22T20:03:40.533Z,19.38
2022-11-22T20:06:08.557Z,18.65
2022-11-22T20:08:35.070Z,18.65
2022-11-22T20:11:02.541Z,19.30
2022-11-22T20:13:29.152Z,21.52
2022-11-22T20:15:56.567Z,19.35
2022-11-22T20:18:23.101Z,22.55
2022-11-22T20:20:49.613Z,20.00
2022-11-22T20:23:16.146Z,20.25
2022-11-22T20:25:42.642Z,19.45
2022-11-22T20:28:09.141Z,20.65
2022-11-22T20:30:35.621Z,20.20
2022-11-22T20:33:02.414Z,18.13
2022-11-22T20:35:28.907Z,20.60
2022-11-22T20:38:58.604Z,17.10
2022-11-22T20:41:26.895Z,17.50
2022-11-22T20:43:53.337Z,18.80
2022-11-22T20:46:21.222Z,18.20
2022-11-22T20:48:48.359Z,19.42
2022-11-22T20:51:16.973Z,21.05
2022-11-22T20:53:43.482Z,20.92
2022-11-22T20:56:10.134Z,21.00
2022-11-22T20:58:36.629Z,21.02
2022-11-22T21:01:12.431Z,22.23
2022-11-22T21:03:38.932Z,19.95
2022-11-22T21:06:05.572Z,20.38
2022-11-22T21:08:32.727Z,21.17
2022-11-22T21:11:14.189Z,19.88
2022-11-22T21:13:40.969Z,21.35
2022-11-22T21:16:22.256Z,20.38
2022-11-22T21:19:04.974Z,20.00
2022-11-22T21:21:32.232Z,20.05
2022-11-22T21:23:59.940Z,21.10
2022-11-22T21:26:26.631Z,19.70
2022-11-22T21:28:53.274Z,17.50
2022-11-22T21:31:19.946Z,22.05
2022-11-22T21:33:46.575Z,29.35
2022-11-22T21:36:13.167Z,19.23
2022-11-22T21:38:39.889Z,21.27
2022-11-22T21:41:37.759Z,19.85
2022-11-22T21:43:55.743Z,19.50
2022-11-22T21:46:22.271Z,20.17
2022-11-22T21:48:50.175Z,20.52
2022-11-22T21:51:16.905Z,20.00
2022-11-22T21:53:43.406Z,21.15
2022-11-22T21:56:09.897Z,20.23
2022-11-22T21:58:36.364Z,22.85
2022-11-22T22:01:07.249Z,20.70
2022-11-22T22:03:36.173Z,40.85
2022-11-22T22:06:02.628Z,36.60
2022-11-22T22:08:30.334Z,21.00
2022-11-22T22:11:00.942Z,44.90
2022-11-22T22:13:28.805Z,21.23
2022-11-22T22:15:57.247Z,22.83
2022-11-22T22:18:24.320Z,20.88
2022-11-22T22:20:59.454Z,24.17
2022-11-22T22:23:25.998Z,24.08
2022-11-22T22:25:57.176Z,22.98
2022-11-22T22:28:24.248Z,24.00
2022-11-22T22:30:50.778Z,26.75
2022-11-22T22:33:17.289Z,59.00
2022-11-22T22:35:43.759Z,59.45
2022-11-22T22:38:10.230Z,57.35
2022-11-22T22:40:36.703Z,49.15
2022-11-22T22:43:03.176Z,57.67
2022-11-22T22:45:29.723Z,47.70
2022-11-22T22:47:56.201Z,65.03
2022-11-22T22:50:22.683Z,72.47
2022-11-22T22:52:49.205Z,63.95
2022-11-22T22:55:15.722Z,59.20
2022-11-22T22:57:42.206Z,65.78
2022-11-22T23:00:09.346Z,58.80
2022-11-22T23:02:36.823Z,61.80
2022-11-22T23:05:03.409Z,62.80
2022-11-22T23:07:30.247Z,62.03
2022-11-22T23:09:56.759Z,61.75
2022-11-22T23:12:23.314Z,68.93
2022-11-22T23:14:49.834Z,54.47
2022-11-22T23:17:16.341Z,65.75
2022-11-22T23:19:42.898Z,77.82
2022-11-22T23:22:09.385Z,79.05
2022-11-22T23:24:35.850Z,83.32
2022-11-22T23:27:02.371Z,76.10
2022-11-22T23:29:29.157Z,77.15
2022-11-22T23:31:55.845Z,78.28
2022-11-22T23:34:22.343Z,60.92
2022-11-22T23:36:48.889Z,74.15
2022-11-22T23:39:15.420Z,54.13
2022-11-22T23:41:41.909Z,40.17
2022-11-22T23:44:08.486Z,37.97
2022-11-22T23:46:35.003Z,37.13
2022-11-22T23:49:01.601Z,33.05
2022-11-22T23:51:28.693Z,33.83
2022-11-22T23:53:59.519Z,50.67
2022-11-22T23:56:26.328Z,35.72
2022-11-22T23:58:52.947Z,29.13
